sensor_id;sensor_type;location;lat;lon;timestamp;P1;durP1;ratioP1;P2;durP2;ratioP2
26277;SDS011;14000;52.056;8.510;2023-02-22T00:00:28;92.03;;;36.50;;
26277;SDS011;14000;52.056;8.510;2023-02-22T00:03:13;79.40;;;34.27;;
26277;SDS011;14000;52.056;8.510;2023-02-22T00:05:41;126.00;;;41.33;;
26277;SDS011;14000;52.056;8.510;2023-02-22T00:08:11;103.13;;;39.60;;
26277;SDS011;14000;52.056;8.510;2023-02-22T00:10:37;92.13;;;35.70;;
26277;SDS011;14000;52.056;8.510;2023-02-22T00:13:04;75.10;;;33.27;;
26277;SDS011;14000;52.056;8.510;2023-02-22T00:15:31;114.63;;;39.77;;
26277;SDS011;14000;52.056;8.510;2023-02-22T00:17:57;115.10;;;40.30;;
26277;SDS011;14000;52.056;8.510;2023-02-22T00:20:23;113.07;;;41.53;;
26277;SDS011;14000;52.056;8.510;2023-02-22T00:22:49;100.70;;;38.40;;
26277;SDS011;14000;52.056;8.510;2023-02-22T00:25:16;91.17;;;35.77;;
26277;SDS011;14000;52.056;8.510;2023-02-22T00:27:47;85.70;;;33.90;;
26277;SDS011;14000;52.056;8.510;2023-02-22T00:30:18;87.90;;;35.83;;
26277;SDS011;14000;52.056;8.510;2023-02-22T00:32:46;131.60;;;42.23;;
26277;SDS011;14000;52.056;8.510;2023-02-22T00:35:13;83.60;;;34.37;;
26277;SDS011;14000;52.056;8.510;2023-02-22T00:37:40;73.87;;;32.50;;
26277;SDS011;14000;52.056;8.510;2023-02-22T00:40:07;74.23;;;32.87;;
26277;SDS011;14000;52.056;8.510;2023-02-22T00:42:36;104.60;;;37.07;;
26277;SDS011;14000;52.056;8.510;2023-02-22T00:45:03;69.40;;;30.27;;
26277;SDS011;14000;52.056;8.510;2023-02-22T00:47:30;81.20;;;32.77;;
26277;SDS011;14000;52.056;8.510;2023-02-22T00:49:55;69.03;;;30.73;;
26277;SDS011;14000;52.056;8.510;2023-02-22T00:52:21;68.50;;;30.77;;
26277;SDS011;14000;52.056;8.510;2023-02-22T00:54:47;68.90;;;29.53;;
26277;SDS011;14000;52.056;8.510;2023-02-22T00:57:12;129.10;;;40.27;;
26277;SDS011;14000;52.056;8.510;2023-02-22T00:59:38;72.63;;;30.23;;
26277;SDS011;14000;52.056;8.510;2023-02-22T01:02:03;61.43;;;29.20;;
26277;SDS011;14000;52.056;8.510;2023-02-22T01:04:29;44.57;;;20.63;;
26277;SDS011;14000;52.056;8.510;2023-02-22T01:06:55;65.20;;;29.37;;
26277;SDS011;14000;52.056;8.510;2023-02-22T01:09:20;66.70;;;29.33;;
26277;SDS011;14000;52.056;8.510;2023-02-22T01:11:47;62.43;;;28.50;;
26277;SDS011;14000;52.056;8.510;2023-02-22T01:14:19;66.03;;;28.57;;
26277;SDS011;14000;52.056;8.510;2023-02-22T01:16:45;52.27;;;23.90;;
26277;SDS011;14000;52.056;8.510;2023-02-22T01:19:10;74.47;;;29.20;;
26277;SDS011;14000;52.056;8.510;2023-02-22T01:21:38;64.97;;;29.10;;
26277;SDS011;14000;52.056;8.510;2023-02-22T01:24:04;63.47;;;27.17;;
26277;SDS011;14000;52.056;8.510;2023-02-22T01:26:30;61.97;;;27.30;;
26277;SDS011;14000;52.056;8.510;2023-02-22T01:28:55;59.73;;;26.20;;
26277;SDS011;14000;52.056;8.510;2023-02-22T01:31:21;99.03;;;33.43;;
26277;SDS011;14000;52.056;8.510;2023-02-22T01:33:48;58.73;;;25.17;;
26277;SDS011;14000;52.056;8.510;2023-02-22T01:36:14;61.07;;;25.57;;
26277;SDS011;14000;52.056;8.510;2023-02-22T01:38:42;100.60;;;32.23;;
26277;SDS011;14000;52.056;8.510;2023-02-22T01:41:09;59.60;;;25.67;;
26277;SDS011;14000;52.056;8.510;2023-02-22T01:43:36;51.73;;;24.90;;
26277;SDS011;14000;52.056;8.510;2023-02-22T01:51:08;59.63;;;25.90;;
26277;SDS011;14000;52.056;8.510;2023-02-22T01:56:27;57.03;;;24.53;;
26277;SDS011;14000;52.056;8.510;2023-02-22T01:58:56;65.90;;;27.83;;
26277;SDS011;14000;52.056;8.510;2023-02-22T02:01:25;52.27;;;23.93;;
26277;SDS011;14000;52.056;8.510;2023-02-22T02:03:56;46.57;;;21.57;;
26277;SDS011;14000;52.056;8.510;2023-02-22T02:06:27;45.10;;;20.60;;
26277;SDS011;14000;52.056;8.510;2023-02-22T02:09:12;57.00;;;25.20;;
26277;SDS011;14000;52.056;8.510;2023-02-22T02:11:45;53.73;;;24.10;;
26277;SDS011;14000;52.056;8.510;2023-02-22T02:14:12;48.20;;;22.53;;
26277;SDS011;14000;52.056;8.510;2023-02-22T02:16:42;54.20;;;23.77;;
26277;SDS011;14000;52.056;8.510;2023-02-22T02:19:23;52.83;;;23.03;;
26277;SDS011;14000;52.056;8.510;2023-02-22T02:25:08;53.77;;;24.27;;
26277;SDS011;14000;52.056;8.510;2023-02-22T02:34:04;45.67;;;21.03;;
26277;SDS011;14000;52.056;8.510;2023-02-22T02:42:00;76.07;;;27.43;;
26277;SDS011;14000;52.056;8.510;2023-02-22T02:47:00;45.97;;;21.03;;
26277;SDS011;14000;52.056;8.510;2023-02-22T02:49:35;57.60;;;24.00;;
26277;SDS011;14000;52.056;8.510;2023-02-22T02:52:12;47.23;;;21.40;;
26277;SDS011;14000;52.056;8.510;2023-02-22T02:54:42;42.60;;;20.20;;
26277;SDS011;14000;52.056;8.510;2023-02-22T02:57:09;44.57;;;20.17;;
26277;SDS011;14000;52.056;8.510;2023-02-22T02:59:36;42.73;;;20.23;;
26277;SDS011;14000;52.056;8.510;2023-02-22T03:07:48;39.87;;;19.30;;
26277;SDS011;14000;52.056;8.510;2023-02-22T03:13:05;44.40;;;20.50;;
26277;SDS011;14000;52.056;8.510;2023-02-22T03:15:44;63.10;;;24.87;;
26277;SDS011;14000;52.056;8.510;2023-02-22T03:21:32;51.40;;;20.77;;
26277;SDS011;14000;52.056;8.510;2023-02-22T03:24:07;103.60;;;28.20;;
26277;SDS011;14000;52.056;8.510;2023-02-22T03:26:42;49.93;;;20.40;;
26277;SDS011;14000;52.056;8.510;2023-02-22T03:29:19;47.00;;;20.57;;
26277;SDS011;14000;52.056;8.510;2023-02-22T03:31:50;43.13;;;19.53;;
26277;SDS011;14000;52.056;8.510;2023-02-22T03:34:26;69.60;;;25.23;;
26277;SDS011;14000;52.056;8.510;2023-02-22T03:36:59;61.03;;;24.30;;
26277;SDS011;14000;52.056;8.510;2023-02-22T03:39:30;48.30;;;20.93;;
26277;SDS011;14000;52.056;8.510;2023-02-22T03:42:13;52.83;;;23.67;;
26277;SDS011;14000;52.056;8.510;2023-02-22T03:44:42;61.03;;;23.10;;
26277;SDS011;14000;52.056;8.510;2023-02-22T03:47:13;57.47;;;22.33;;
26277;SDS011;14000;52.056;8.510;2023-02-22T03:49:50;66.27;;;19.60;;
26277;SDS011;14000;52.056;8.510;2023-02-22T03:52:20;25.70;;;11.80;;
26277;SDS011;14000;52.056;8.510;2023-02-22T03:54:49;25.17;;;12.70;;
26277;SDS011;14000;52.056;8.510;2023-02-22T03:57:25;33.07;;;14.47;;
26277;SDS011;14000;52.056;8.510;2023-02-22T03:59:53;46.53;;;18.70;;
26277;SDS011;14000;52.056;8.510;2023-02-22T04:02:19;47.97;;;19.90;;
26277;SDS011;14000;52.056;8.510;2023-02-22T04:04:47;59.87;;;21.83;;
26277;SDS011;14000;52.056;8.510;2023-02-22T04:07:13;61.83;;;22.97;;
26277;SDS011;14000;52.056;8.510;2023-02-22T04:09:39;70.00;;;22.20;;
26277;SDS011;14000;52.056;8.510;2023-02-22T04:12:05;51.80;;;20.73;;
26277;SDS011;14000;52.056;8.510;2023-02-22T04:14:31;44.90;;;17.90;;
26277;SDS011;14000;52.056;8.510;2023-02-22T04:16:56;39.03;;;17.50;;
26277;SDS011;14000;52.056;8.510;2023-02-22T04:19:22;43.67;;;17.53;;
26277;SDS011;14000;52.056;8.510;2023-02-22T04:21:48;38.10;;;17.40;;
26277;SDS011;14000;52.056;8.510;2023-02-22T04:24:13;31.37;;;14.57;;
26277;SDS011;14000;52.056;8.510;2023-02-22T04:26:39;63.00;;;20.03;;
26277;SDS011;14000;52.056;8.510;2023-02-22T04:29:04;88.33;;;23.70;;
26277;SDS011;14000;52.056;8.510;2023-02-22T04:31:30;39.23;;;17.33;;
26277;SDS011;14000;52.056;8.510;2023-02-22T04:33:57;33.07;;;14.97;;
26277;SDS011;14000;52.056;8.510;2023-02-22T04:36:23;107.57;;;21.07;;
26277;SDS011;14000;52.056;8.510;2023-02-22T04:38:51;57.20;;;18.97;;
26277;SDS011;14000;52.056;8.510;2023-02-22T04:41:17;123.63;;;22.53;;
26277;SDS011;14000;52.056;8.510;2023-02-22T04:43:43;104.53;;;23.17;;
26277;SDS011;14000;52.056;8.510;2023-02-22T04:46:09;179.33;;;24.00;;
26277;SDS011;14000;52.056;8.510;2023-02-22T04:48:36;36.23;;;16.80;;
26277;SDS011;14000;52.056;8.510;2023-02-22T04:51:02;120.80;;;23.53;;
26277;SDS011;14000;52.056;8.510;2023-02-22T04:53:27;73.33;;;21.97;;
26277;SDS011;14000;52.056;8.510;2023-02-22T04:55:53;120.20;;;23.87;;
26277;SDS011;14000;52.056;8.510;2023-02-22T04:58:19;77.20;;;21.97;;
26277;SDS011;14000;52.056;8.510;2023-02-22T05:00:44;68.77;;;22.40;;
26277;SDS011;14000;52.056;8.510;2023-02-22T05:03:10;58.63;;;21.50;;
26277;SDS011;14000;52.056;8.510;2023-02-22T05:05:35;100.23;;;24.20;;
26277;SDS011;14000;52.056;8.510;2023-02-22T05:08:01;47.93;;;19.63;;
26277;SDS011;14000;52.056;8.510;2023-02-22T05:10:27;68.80;;;22.77;;
26277;SDS011;14000;52.056;8.510;2023-02-22T05:12:53;77.73;;;22.17;;
26277;SDS011;14000;52.056;8.510;2023-02-22T05:15:20;103.73;;;22.30;;
26277;SDS011;14000;52.056;8.510;2023-02-22T05:17:46;75.00;;;20.63;;
26277;SDS011;14000;52.056;8.510;2023-02-22T05:20:21;47.47;;;18.00;;
26277;SDS011;14000;52.056;8.510;2023-02-22T05:22:56;50.10;;;19.00;;
26277;SDS011;14000;52.056;8.510;2023-02-22T05:25:23;87.10;;;22.53;;
26277;SDS011;14000;52.056;8.510;2023-02-22T05:27:53;72.63;;;20.60;;
26277;SDS011;14000;52.056;8.510;2023-02-22T05:30:22;69.13;;;19.63;;
26277;SDS011;14000;52.056;8.510;2023-02-22T05:32:51;102.17;;;23.20;;
26277;SDS011;14000;52.056;8.510;2023-02-22T05:35:17;45.93;;;19.30;;
26277;SDS011;14000;52.056;8.510;2023-02-22T05:37:44;75.73;;;20.97;;
26277;SDS011;14000;52.056;8.510;2023-02-22T05:40:10;49.97;;;19.40;;
26277;SDS011;14000;52.056;8.510;2023-02-22T05:42:35;43.63;;;18.33;;
26277;SDS011;14000;52.056;8.510;2023-02-22T05:45:01;65.63;;;19.57;;
26277;SDS011;14000;52.056;8.510;2023-02-22T05:47:27;56.93;;;19.73;;
26277;SDS011;14000;52.056;8.510;2023-02-22T05:49:53;54.20;;;19.97;;
26277;SDS011;14000;52.056;8.510;2023-02-22T05:52:19;47.90;;;19.23;;
26277;SDS011;14000;52.056;8.510;2023-02-22T05:54:45;69.03;;;21.07;;
26277;SDS011;14000;52.056;8.510;2023-02-22T05:57:10;51.57;;;20.93;;
26277;SDS011;14000;52.056;8.510;2023-02-22T05:59:36;61.93;;;20.27;;
26277;SDS011;14000;52.056;8.510;2023-02-22T06:02:02;50.50;;;19.43;;
26277;SDS011;14000;52.056;8.510;2023-02-22T06:04:27;48.63;;;18.93;;
26277;SDS011;14000;52.056;8.510;2023-02-22T06:06:53;46.00;;;18.60;;
26277;SDS011;14000;52.056;8.510;2023-02-22T06:09:18;53.40;;;19.00;;
26277;SDS011;14000;52.056;8.510;2023-02-22T06:11:44;47.17;;;18.77;;
26277;SDS011;14000;52.056;8.510;2023-02-22T06:14:09;47.97;;;18.87;;
26277;SDS011;14000;52.056;8.510;2023-02-22T06:16:35;45.17;;;18.53;;
26277;SDS011;14000;52.056;8.510;2023-02-22T06:19:00;42.53;;;18.27;;
26277;SDS011;14000;52.056;8.510;2023-02-22T06:21:26;40.27;;;17.10;;
26277;SDS011;14000;52.056;8.510;2023-02-22T06:23:52;30.87;;;13.63;;
26277;SDS011;14000;52.056;8.510;2023-02-22T06:26:17;37.57;;;16.17;;
26277;SDS011;14000;52.056;8.510;2023-02-22T06:28:44;62.93;;;19.73;;
26277;SDS011;14000;52.056;8.510;2023-02-22T06:31:10;54.53;;;19.33;;
26277;SDS011;14000;52.056;8.510;2023-02-22T06:33:35;56.33;;;19.77;;
26277;SDS011;14000;52.056;8.510;2023-02-22T06:36:01;63.10;;;20.97;;
26277;SDS011;14000;52.056;8.510;2023-02-22T06:38:27;57.17;;;20.97;;
26277;SDS011;14000;52.056;8.510;2023-02-22T06:40:52;51.33;;;19.57;;
26277;SDS011;14000;52.056;8.510;2023-02-22T06:43:19;44.97;;;18.57;;
26277;SDS011;14000;52.056;8.510;2023-02-22T06:45:49;49.40;;;18.17;;
26277;SDS011;14000;52.056;8.510;2023-02-22T06:48:15;58.90;;;20.03;;
26277;SDS011;14000;52.056;8.510;2023-02-22T06:50:41;55.10;;;18.97;;
26277;SDS011;14000;52.056;8.510;2023-02-22T06:53:06;47.47;;;19.07;;
26277;SDS011;14000;52.056;8.510;2023-02-22T06:55:33;50.23;;;20.13;;
26277;SDS011;14000;52.056;8.510;2023-02-22T06:57:59;50.43;;;19.30;;
26277;SDS011;14000;52.056;8.510;2023-02-22T07:00:25;51.07;;;19.27;;
26277;SDS011;14000;52.056;8.510;2023-02-22T07:02:52;37.47;;;16.67;;
26277;SDS011;14000;52.056;8.510;2023-02-22T07:05:19;49.87;;;20.47;;
26277;SDS011;14000;52.056;8.510;2023-02-22T07:07:47;55.23;;;22.77;;
26277;SDS011;14000;52.056;8.510;2023-02-22T07:10:18;51.70;;;22.13;;
26277;SDS011;14000;52.056;8.510;2023-02-22T07:12:49;50.50;;;22.20;;
26277;SDS011;14000;52.056;8.510;2023-02-22T07:15:16;66.83;;;27.07;;
26277;SDS011;14000;52.056;8.510;2023-02-22T07:17:42;59.63;;;26.33;;
26277;SDS011;14000;52.056;8.510;2023-02-22T07:20:08;49.30;;;22.67;;
26277;SDS011;14000;52.056;8.510;2023-02-22T07:22:35;42.50;;;19.90;;
26277;SDS011;14000;52.056;8.510;2023-02-22T07:25:03;41.57;;;20.33;;
26277;SDS011;14000;52.056;8.510;2023-02-22T07:27:29;39.13;;;18.97;;
26277;SDS011;14000;52.056;8.510;2023-02-22T07:29:55;34.63;;;17.43;;
26277;SDS011;14000;52.056;8.510;2023-02-22T07:32:20;41.37;;;18.77;;
26277;SDS011;14000;52.056;8.510;2023-02-22T07:34:46;40.27;;;19.07;;
26277;SDS011;14000;52.056;8.510;2023-02-22T07:37:11;32.30;;;15.23;;
26277;SDS011;14000;52.056;8.510;2023-02-22T07:39:37;40.67;;;19.57;;
26277;SDS011;14000;52.056;8.510;2023-02-22T07:42:06;64.50;;;27.37;;
26277;SDS011;14000;52.056;8.510;2023-02-22T07:44:31;48.47;;;22.87;;
26277;SDS011;14000;52.056;8.510;2023-02-22T07:46:57;44.07;;;21.37;;
26277;SDS011;14000;52.056;8.510;2023-02-22T07:49:22;38.67;;;19.50;;
26277;SDS011;14000;52.056;8.510;2023-02-22T07:51:48;39.53;;;19.67;;
26277;SDS011;14000;52.056;8.510;2023-02-22T07:54:13;55.80;;;26.57;;
26277;SDS011;14000;52.056;8.510;2023-02-22T07:56:43;37.50;;;20.20;;
26277;SDS011;14000;52.056;8.510;2023-02-22T07:59:12;52.17;;;23.90;;
26277;SDS011;14000;52.056;8.510;2023-02-22T08:01:38;40.27;;;18.57;;
26277;SDS011;14000;52.056;8.510;2023-02-22T08:04:04;36.47;;;17.90;;
26277;SDS011;14000;52.056;8.510;2023-02-22T08:06:30;31.53;;;16.70;;
26277;SDS011;14000;52.056;8.510;2023-02-22T08:08:56;32.40;;;17.23;;
26277;SDS011;14000;52.056;8.510;2023-02-22T08:11:22;31.20;;;16.50;;
26277;SDS011;14000;52.056;8.510;2023-02-22T08:13:49;33.40;;;17.97;;
26277;SDS011;14000;52.056;8.510;2023-02-22T08:16:14;37.13;;;18.87;;
26277;SDS011;14000;52.056;8.510;2023-02-22T08:18:40;37.80;;;19.10;;
26277;SDS011;14000;52.056;8.510;2023-02-22T08:21:06;35.30;;;18.37;;
26277;SDS011;14000;52.056;8.510;2023-02-22T08:23:31;35.67;;;18.20;;
26277;SDS011;14000;52.056;8.510;2023-02-22T08:26:03;37.40;;;18.87;;
26277;SDS011;14000;52.056;8.510;2023-02-22T08:28:32;44.20;;;22.10;;
26277;SDS011;14000;52.056;8.510;2023-02-22T08:30:59;41.00;;;19.27;;
26277;SDS011;14000;52.056;8.510;2023-02-22T08:33:24;39.40;;;19.87;;
26277;SDS011;14000;52.056;8.510;2023-02-22T08:35:50;54.97;;;24.30;;
26277;SDS011;14000;52.056;8.510;2023-02-22T08:38:21;49.33;;;24.80;;
26277;SDS011;14000;52.056;8.510;2023-02-22T08:40:56;58.90;;;26.37;;
26277;SDS011;14000;52.056;8.510;2023-02-22T08:43:22;59.90;;;28.50;;
26277;SDS011;14000;52.056;8.510;2023-02-22T08:45:48;67.70;;;30.77;;
26277;SDS011;14000;52.056;8.510;2023-02-22T08:48:14;92.80;;;36.33;;
26277;SDS011;14000;52.056;8.510;2023-02-22T08:50:41;78.03;;;33.97;;
26277;SDS011;14000;52.056;8.510;2023-02-22T08:53:06;77.23;;;35.30;;
26277;SDS011;14000;52.056;8.510;2023-02-22T08:55:34;79.17;;;34.27;;
26277;SDS011;14000;52.056;8.510;2023-02-22T08:58:02;78.67;;;35.67;;
26277;SDS011;14000;52.056;8.510;2023-02-22T09:00:30;78.90;;;35.60;;
26277;SDS011;14000;52.056;8.510;2023-02-22T09:03:07;157.33;;;49.77;;
26277;SDS011;14000;52.056;8.510;2023-02-22T09:05:34;113.80;;;44.47;;
26277;SDS011;14000;52.056;8.510;2023-02-22T09:08:00;99.10;;;41.57;;
26277;SDS011;14000;52.056;8.510;2023-02-22T09:10:27;87.13;;;37.80;;
26277;SDS011;14000;52.056;8.510;2023-02-22T09:12:55;122.07;;;43.90;;
26277;SDS011;14000;52.056;8.510;2023-02-22T09:15:21;77.33;;;36.10;;
26277;SDS011;14000;52.056;8.510;2023-02-22T09:17:48;86.30;;;37.50;;
26277;SDS011;14000;52.056;8.510;2023-02-22T09:20:15;102.13;;;40.23;;
26277;SDS011;14000;52.056;8.510;2023-02-22T09:22:43;77.07;;;36.33;;
26277;SDS011;14000;52.056;8.510;2023-02-22T09:25:10;79.90;;;35.07;;
26277;SDS011;14000;52.056;8.510;2023-02-22T09:27:35;73.43;;;35.17;;
26277;SDS011;14000;52.056;8.510;2023-02-22T09:30:02;77.23;;;35.50;;
26277;SDS011;14000;52.056;8.510;2023-02-22T09:32:29;81.53;;;37.30;;
26277;SDS011;14000;52.056;8.510;2023-02-22T09:34:54;66.23;;;33.63;;
26277;SDS011;14000;52.056;8.510;2023-02-22T09:37:20;64.13;;;31.13;;
26277;SDS011;14000;52.056;8.510;2023-02-22T09:39:46;60.33;;;31.87;;
26277;SDS011;14000;52.056;8.510;2023-02-22T09:45:09;62.20;;;31.47;;
26277;SDS011;14000;52.056;8.510;2023-02-22T09:47:43;47.50;;;25.83;;
26277;SDS011;14000;52.056;8.510;2023-02-22T09:50:23;58.07;;;29.67;;
26277;SDS011;14000;52.056;8.510;2023-02-22T09:53:05;54.20;;;28.30;;
26277;SDS011;14000;52.056;8.510;2023-02-22T09:55:49;49.90;;;25.93;;
26277;SDS011;14000;52.056;8.510;2023-02-22T09:58:32;47.37;;;25.90;;
26277;SDS011;14000;52.056;8.510;2023-02-22T10:01:23;42.93;;;23.73;;
26277;SDS011;14000;52.056;8.510;2023-02-22T10:04:04;44.90;;;23.87;;
26277;SDS011;14000;52.056;8.510;2023-02-22T10:06:30;50.70;;;26.23;;
26277;SDS011;14000;52.056;8.510;2023-02-22T10:09:00;43.57;;;24.67;;
26277;SDS011;14000;52.056;8.510;2023-02-22T10:27:17;34.33;;;19.37;;
26277;SDS011;14000;52.056;8.510;2023-02-22T10:29:47;42.57;;;22.50;;
26277;SDS011;14000;52.056;8.510;2023-02-22T10:32:20;30.20;;;16.93;;
26277;SDS011;14000;52.056;8.510;2023-02-22T10:34:50;30.40;;;16.23;;
26277;SDS011;14000;52.056;8.510;2023-02-22T10:37:27;29.47;;;16.40;;
26277;SDS011;14000;52.056;8.510;2023-02-22T10:40:11;26.40;;;14.83;;
26277;SDS011;14000;52.056;8.510;2023-02-22T10:42:37;28.60;;;14.90;;
26277;SDS011;14000;52.056;8.510;2023-02-22T10:45:03;26.83;;;15.27;;
26277;SDS011;14000;52.056;8.510;2023-02-22T10:47:30;25.93;;;14.60;;
26277;SDS011;14000;52.056;8.510;2023-02-22T10:49:58;26.43;;;14.17;;
26277;SDS011;14000;52.056;8.510;2023-02-22T10:52:26;27.73;;;14.93;;
26277;SDS011;14000;52.056;8.510;2023-02-22T10:54:58;25.93;;;14.33;;
26277;SDS011;14000;52.056;8.510;2023-02-22T10:57:28;25.20;;;13.37;;
26277;SDS011;14000;52.056;8.510;2023-02-22T11:02:53;27.17;;;13.47;;
26277;SDS011;14000;52.056;8.510;2023-02-22T11:05:55;26.60;;;14.00;;
26277;SDS011;14000;52.056;8.510;2023-02-22T11:10:43;25.60;;;13.77;;
26277;SDS011;14000;52.056;8.510;2023-02-22T11:13:15;27.47;;;15.07;;
26277;SDS011;14000;52.056;8.510;2023-02-22T11:16:02;23.87;;;12.80;;
26277;SDS011;14000;52.056;8.510;2023-02-22T11:18:43;26.60;;;13.37;;
26277;SDS011;14000;52.056;8.510;2023-02-22T11:21:11;24.87;;;12.40;;
26277;SDS011;14000;52.056;8.510;2023-02-22T11:23:38;26.03;;;13.20;;
26277;SDS011;14000;52.056;8.510;2023-02-22T11:26:13;23.73;;;12.07;;
26277;SDS011;14000;52.056;8.510;2023-02-22T11:28:42;30.43;;;15.53;;
26277;SDS011;14000;52.056;8.510;2023-02-22T11:31:23;20.80;;;11.47;;
26277;SDS011;14000;52.056;8.510;2023-02-22T11:33:55;23.97;;;12.53;;
26277;SDS011;14000;52.056;8.510;2023-02-22T11:36:41;27.43;;;15.13;;
26277;SDS011;14000;52.056;8.510;2023-02-22T11:41:48;23.33;;;11.40;;
26277;SDS011;14000;52.056;8.510;2023-02-22T11:46:55;26.10;;;11.93;;
26277;SDS011;14000;52.056;8.510;2023-02-22T11:49:32;20.93;;;10.20;;
26277;SDS011;14000;52.056;8.510;2023-02-22T11:54:43;21.47;;;10.80;;
26277;SDS011;14000;52.056;8.510;2023-02-22T12:00:04;19.90;;;10.37;;
26277;SDS011;14000;52.056;8.510;2023-02-22T12:08:21;19.63;;;10.03;;
26277;SDS011;14000;52.056;8.510;2023-02-22T12:11:08;15.10;;;8.13;;
26277;SDS011;14000;52.056;8.510;2023-02-22T12:16:35;19.93;;;9.87;;
26277;SDS011;14000;52.056;8.510;2023-02-22T12:19:21;19.87;;;10.43;;
26277;SDS011;14000;52.056;8.510;2023-02-22T12:22:06;19.40;;;9.57;;
26277;SDS011;14000;52.056;8.510;2023-02-22T12:24:41;17.63;;;9.47;;
26277;SDS011;14000;52.056;8.510;2023-02-22T12:27:32;17.73;;;9.60;;
26277;SDS011;14000;52.056;8.510;2023-02-22T12:30:02;19.10;;;8.93;;
26277;SDS011;14000;52.056;8.510;2023-02-22T12:35:11;21.63;;;9.50;;
26277;SDS011;14000;52.056;8.510;2023-02-22T12:40:53;16.70;;;8.60;;
26277;SDS011;14000;52.056;8.510;2023-02-22T12:43:37;17.93;;;8.47;;
26277;SDS011;14000;52.056;8.510;2023-02-22T12:51:59;18.17;;;8.07;;
26277;SDS011;14000;52.056;8.510;2023-02-22T12:54:42;14.07;;;7.20;;
26277;SDS011;14000;52.056;8.510;2023-02-22T12:57:17;17.40;;;7.70;;
26277;SDS011;14000;52.056;8.510;2023-02-22T13:02:43;14.60;;;7.30;;
26277;SDS011;14000;52.056;8.510;2023-02-22T13:05:18;15.50;;;7.10;;
26277;SDS011;14000;52.056;8.510;2023-02-22T13:10:36;16.37;;;7.50;;
26277;SDS011;14000;52.056;8.510;2023-02-22T13:22:17;13.70;;;5.80;;
26277;SDS011;14000;52.056;8.510;2023-02-22T13:30:20;14.60;;;6.67;;
26277;SDS011;14000;52.056;8.510;2023-02-22T13:32:55;15.97;;;7.63;;
26277;SDS011;14000;52.056;8.510;2023-02-22T13:38:44;16.37;;;6.70;;
26277;SDS011;14000;52.056;8.510;2023-02-22T13:44:14;12.67;;;6.20;;
26277;SDS011;14000;52.056;8.510;2023-02-22T13:52:22;14.57;;;5.97;;
26277;SDS011;14000;52.056;8.510;2023-02-22T13:54:52;11.87;;;5.70;;
26277;SDS011;14000;52.056;8.510;2023-02-22T13:57:38;13.43;;;6.07;;
26277;SDS011;14000;52.056;8.510;2023-02-22T14:08:01;12.73;;;5.03;;
26277;SDS011;14000;52.056;8.510;2023-02-22T14:13:30;12.30;;;4.93;;
26277;SDS011;14000;52.056;8.510;2023-02-22T14:16:22;12.10;;;5.17;;
26277;SDS011;14000;52.056;8.510;2023-02-22T14:21:37;13.20;;;6.13;;
26277;SDS011;14000;52.056;8.510;2023-02-22T14:24:26;11.50;;;5.30;;
26277;SDS011;14000;52.056;8.510;2023-02-22T14:26:55;11.20;;;5.53;;
26277;SDS011;14000;52.056;8.510;2023-02-22T14:29:27;16.80;;;8.37;;
26277;SDS011;14000;52.056;8.510;2023-02-22T14:32:01;19.83;;;9.03;;
26277;SDS011;14000;52.056;8.510;2023-02-22T14:34:39;14.47;;;6.13;;
26277;SDS011;14000;52.056;8.510;2023-02-22T14:42:24;13.40;;;6.17;;
26277;SDS011;14000;52.056;8.510;2023-02-22T14:45:19;15.20;;;6.90;;
26277;SDS011;14000;52.056;8.510;2023-02-22T14:50:49;14.33;;;6.67;;
26277;SDS011;14000;52.056;8.510;2023-02-22T14:53:37;15.53;;;6.70;;
26277;SDS011;14000;52.056;8.510;2023-02-22T14:56:24;16.33;;;7.10;;
26277;SDS011;14000;52.056;8.510;2023-02-22T15:03:50;14.23;;;6.87;;
26277;SDS011;14000;52.056;8.510;2023-02-22T15:06:22;14.17;;;6.63;;
26277;SDS011;14000;52.056;8.510;2023-02-22T15:11:39;14.70;;;6.77;;
26277;SDS011;14000;52.056;8.510;2023-02-22T15:14:19;18.57;;;8.03;;
26277;SDS011;14000;52.056;8.510;2023-02-22T15:16:48;15.03;;;7.60;;
26277;SDS011;14000;52.056;8.510;2023-02-22T15:19:19;19.50;;;8.47;;
26277;SDS011;14000;52.056;8.510;2023-02-22T15:21:51;17.93;;;8.40;;
26277;SDS011;14000;52.056;8.510;2023-02-22T15:24:20;16.40;;;7.93;;
26277;SDS011;14000;52.056;8.510;2023-02-22T15:26:50;15.40;;;7.20;;
26277;SDS011;14000;52.056;8.510;2023-02-22T15:29:22;15.70;;;7.23;;
26277;SDS011;14000;52.056;8.510;2023-02-22T15:31:50;15.53;;;7.77;;
26277;SDS011;14000;52.056;8.510;2023-02-22T15:36:48;17.70;;;7.23;;
26277;SDS011;14000;52.056;8.510;2023-02-22T15:44:47;13.23;;;6.13;;
26277;SDS011;14000;52.056;8.510;2023-02-22T15:47:23;13.63;;;6.57;;
26277;SDS011;14000;52.056;8.510;2023-02-22T15:52:46;15.47;;;6.83;;
26277;SDS011;14000;52.056;8.510;2023-02-22T15:55:22;15.97;;;7.20;;
26277;SDS011;14000;52.056;8.510;2023-02-22T15:58:06;14.57;;;6.93;;
26277;SDS011;14000;52.056;8.510;2023-02-22T16:00:35;14.13;;;7.27;;
26277;SDS011;14000;52.056;8.510;2023-02-22T16:03:03;13.20;;;6.00;;
26277;SDS011;14000;52.056;8.510;2023-02-22T16:05:35;11.50;;;5.40;;
26277;SDS011;14000;52.056;8.510;2023-02-22T16:08:07;13.87;;;6.13;;
26277;SDS011;14000;52.056;8.510;2023-02-22T16:10:46;13.33;;;5.20;;
26277;SDS011;14000;52.056;8.510;2023-02-22T16:13:26;12.23;;;5.87;;
26277;SDS011;14000;52.056;8.510;2023-02-22T16:18:44;14.03;;;6.40;;
26277;SDS011;14000;52.056;8.510;2023-02-22T16:21:12;14.07;;;6.57;;
26277;SDS011;14000;52.056;8.510;2023-02-22T16:23:43;14.47;;;6.83;;
26277;SDS011;14000;52.056;8.510;2023-02-22T16:28:46;12.97;;;6.03;;
26277;SDS011;14000;52.056;8.510;2023-02-22T16:31:16;13.63;;;6.13;;
26277;SDS011;14000;52.056;8.510;2023-02-22T16:33:46;14.70;;;6.83;;
26277;SDS011;14000;52.056;8.510;2023-02-22T16:36:13;14.17;;;7.27;;
26277;SDS011;14000;52.056;8.510;2023-02-22T16:38:38;16.30;;;6.90;;
26277;SDS011;14000;52.056;8.510;2023-02-22T16:41:07;16.13;;;6.40;;
26277;SDS011;14000;52.056;8.510;2023-02-22T16:43:32;12.63;;;6.40;;
26277;SDS011;14000;52.056;8.510;2023-02-22T16:45:59;12.87;;;6.67;;
26277;SDS011;14000;52.056;8.510;2023-02-22T16:48:27;13.57;;;6.50;;
26277;SDS011;14000;52.056;8.510;2023-02-22T16:50:54;12.87;;;6.00;;
26277;SDS011;14000;52.056;8.510;2023-02-22T16:53:24;13.40;;;6.53;;
26277;SDS011;14000;52.056;8.510;2023-02-22T16:55:52;12.60;;;5.73;;
26277;SDS011;14000;52.056;8.510;2023-02-22T16:58:24;14.30;;;7.43;;
26277;SDS011;14000;52.056;8.510;2023-02-22T17:00:53;17.17;;;9.10;;
26277;SDS011;14000;52.056;8.510;2023-02-22T17:03:21;15.90;;;8.40;;
26277;SDS011;14000;52.056;8.510;2023-02-22T17:05:47;15.73;;;7.33;;
26277;SDS011;14000;52.056;8.510;2023-02-22T17:08:13;15.17;;;7.60;;
26277;SDS011;14000;52.056;8.510;2023-02-22T17:10:40;14.07;;;7.03;;
26277;SDS011;14000;52.056;8.510;2023-02-22T17:13:06;15.17;;;8.13;;
26277;SDS011;14000;52.056;8.510;2023-02-22T17:15:33;14.63;;;8.53;;
26277;SDS011;14000;52.056;8.510;2023-02-22T17:18:00;18.93;;;10.13;;
26277;SDS011;14000;52.056;8.510;2023-02-22T17:20:29;16.13;;;8.67;;
26277;SDS011;14000;52.056;8.510;2023-02-22T17:23:03;16.33;;;8.97;;
26277;SDS011;14000;52.056;8.510;2023-02-22T17:25:32;20.93;;;9.10;;
26277;SDS011;14000;52.056;8.510;2023-02-22T17:28:02;14.53;;;7.47;;